Time;durP1;ratioP1;P1;durP2;ratioP2;P2;SDS_P1;SDS_P2;PMS_P1;PMS_P2;Temp;Humidity;BMP_temperature;BMP_pressure;BME280_temperature;BME280_humidity;BME280_pressure;Samples;Min_cycle;Max_cycle;Signal;HPM_P1;HPM_P2
2023/10/16 07:32:01;;;;;;;12.73;4.20;;;8.10;88.30;;;8.44;56.10;99234.56;3989204;23;98714;-85
2023/10/16 07:34:33;;;;;;;5.83;3.80;;;8.10;88.10;;;8.46;56.18;99237.00;5243873;23;118384;-86
2023/10/16 07:45:04;;;;;;;8.23;4.40;;;7.50;87.20;;;8.56;56.12;99234.19;4896112;28;124935;-87
2023/10/16 07:48:07;;;;;;;10.07;4.57;;;8.20;87.90;;;8.64;56.03;99230.81;4878362;28;119069;-86
2023/10/16 07:51:31;;;;;;;11.00;4.97;;;11.10;90.00;;;8.61;56.07;99228.63;4860180;28;119182;-86
2023/10/16 07:54:20;;;;;;;11.73;5.53;;;5.30;85.30;;;8.68;56.00;99223.63;4876195;29;123629;-87
2023/10/16 08:07:16;;;;;;;15.77;5.47;;;8.60;88.50;;;8.97;55.83;99228.28;4801092;29;124013;-87
2023/10/16 08:10:43;;;;;;;10.00;5.07;;;8.50;88.60;;;9.02;55.83;99228.22;4816841;29;122016;-86
2023/10/16 08:14:07;;;;;;;8.13;4.13;;;8.50;88.10;;;9.14;55.75;99225.91;4802717;29;119595;-86
2023/10/16 08:17:52;;;;;;;7.87;3.93;;;8.90;88.30;;;9.23;55.72;99229.66;4788885;29;118536;-86
2023/10/16 08:21:16;;;;;;;12.03;4.90;;;9.10;88.00;;;9.29;55.18;99227.66;4803327;29;124655;-86
2023/10/16 08:24:13;;;;;;;8.30;4.23;;;8.50;87.20;;;9.35;55.30;99225.66;4767680;29;124421;-86
2023/10/16 08:30:49;;;;;;;17.13;4.47;;;11.10;88.50;;;9.57;54.76;99230.66;4789124;29;120048;-86
2023/10/16 08:33:49;;;;;;;5.33;3.77;;;9.10;87.80;;;9.63;54.61;99232.22;4790927;29;122908;-86
2023/10/16 08:36:37;;;;;;;14.43;4.63;;;9.50;88.30;;;9.73;54.71;99232.09;4799210;29;123774;-86
2023/10/16 08:39:28;;;;;;;12.77;4.23;;;9.30;87.10;;;9.82;54.38;99233.06;4792955;29;119096;-87
2023/10/16 08:42:24;;;;;;;8.80;3.80;;;12.00;88.80;;;9.84;54.27;99227.25;4821559;29;119742;-86
2023/10/16 08:45:24;;;;;;;10.50;4.33;;;9.40;86.40;;;9.88;53.84;99228.28;4808011;29;123037;-86
2023/10/16 08:48:36;;;;;;;5.67;3.67;;;9.40;86.40;;;9.87;54.09;99234.94;4818409;29;123004;-86
2023/10/16 08:51:31;;;;;;;10.40;3.40;;;10.10;85.50;;;9.87;53.98;99232.19;4789493;29;118942;-87
2023/10/16 08:54:02;;;;;;;8.10;4.00;;;7.90;84.50;;;9.90;53.51;99237.09;4806574;29;117451;-87
2023/10/16 08:57:30;;;;;;;8.63;4.27;;;9.60;85.90;;;9.91;53.64;99247.88;4783385;29;123630;-87
2023/10/16 09:00:12;;;;;;;5.30;3.20;;;9.50;85.30;;;9.96;54.01;99241.44;4767669;29;123651;-87
2023/10/16 09:03:11;;;;;;;8.60;3.93;;;9.60;85.40;;;10.05;53.70;99236.91;4781446;29;118910;-87
2023/10/16 09:06:22;;;;;;;5.13;3.40;;;9.70;85.50;;;10.13;53.74;99235.41;4844704;29;117796;-87
2023/10/16 09:09:13;;;;;;;5.20;3.47;;;9.80;85.40;;;10.24;53.20;99236.91;4851348;29;124366;-87
2023/10/16 09:11:50;;;;;;;6.03;3.53;;;10.10;84.40;;;10.34;53.18;99230.41;4837989;29;121224;-87
2023/10/16 09:15:09;;;;;;;7.73;3.90;;;6.80;82.50;;;10.38;53.01;99225.94;4837284;29;118793;-87
2023/10/16 09:18:02;;;;;;;6.93;3.07;;;9.90;84.50;;;10.42;52.44;99224.19;4790705;29;118377;-87
2023/10/16 09:21:00;;;;;;;6.43;3.87;;;12.20;85.80;;;10.46;52.72;99222.47;4811455;29;124887;-87
2023/10/16 09:24:54;;;;;;;5.10;3.80;;;10.10;83.20;;;10.53;52.46;99211.88;4791667;29;123228;-87
2023/10/16 09:28:16;;;;;;;5.73;3.33;;;8.40;82.80;;;10.64;52.62;99222.72;4803308;29;117690;-86
2023/10/16 09:31:19;;;;;;;4.50;3.50;;;10.20;83.30;;;10.68;52.35;99215.50;4854940;29;119498;-87
2023/10/16 09:34:01;;;;;;;7.50;3.70;;;6.70;80.70;;;10.74;52.42;99222.56;4823665;29;122661;-87
2023/10/16 09:37:20;;;;;;;6.03;3.37;;;10.30;82.80;;;10.76;52.19;99215.59;4836299;29;121854;-87
2023/10/16 09:40:37;;;;;;;5.23;3.13;;;10.40;82.50;;;10.77;52.00;99203.44;4843996;29;119415;-87
2023/10/16 09:43:27;;;;;;;8.97;4.23;;;10.40;82.40;;;10.82;52.07;99197.00;4840007;29;118470;-87
2023/10/16 09:46:33;;;;;;;5.17;3.43;;;10.50;82.50;;;10.90;51.65;99199.03;4805288;29;124104;-87
2023/10/16 09:49:07;;;;;;;8.77;3.53;;;10.50;82.20;;;10.98;51.47;99189.22;4839211;29;122640;-87
2023/10/16 09:52:03;;;;;;;6.87;4.20;;;10.50;82.40;;;11.02;51.73;99182.78;4843079;29;119470;-86
2023/10/16 09:54:42;;;;;;;5.83;3.50;;;10.60;82.30;;;11.03;51.33;99176.13;4867037;28;118879;-88
2023/10/16 09:57:47;;;;;;;6.30;3.10;;;10.60;82.10;;;11.04;51.60;99177.78;4868190;28;122879;-87
2023/10/16 10:03:13;;;;;;;7.77;3.60;;;10.70;81.70;;;11.24;50.73;99178.50;4866587;29;120660;-86
2023/10/16 10:06:08;;;;;;;6.63;2.97;;;10.80;81.70;;;11.28;50.81;99179.50;4858327;28;119372;-88
2023/10/16 10:09:21;;;;;;;3.80;3.40;;;10.90;81.20;;;11.35;50.96;99176.34;4840662;29;123959;-86
2023/10/16 10:12:47;;;;;;;7.97;3.83;;;10.80;81.10;;;11.41;50.45;99173.16;4871165;28;122163;-87
2023/10/16 10:15:46;;;;;;;4.30;3.60;;;11.00;80.60;;;11.49;50.14;99171.59;4893875;28;118958;-88
2023/10/16 10:18:42;;;;;;;3.43;2.83;;;11.10;80.60;;;11.58;49.69;99168.94;4893600;28;117583;-86
2023/10/16 10:21:30;;;;;;;7.57;3.70;;;11.10;80.00;;;11.65;49.86;99163.81;4901452;28;124099;-87
2023/10/16 10:24:08;;;;;;;7.93;3.20;;;11.20;80.00;;;11.78;49.75;99164.91;4878128;28;123321;-87
2023/10/16 10:26:59;;;;;;;5.37;2.67;;;11.30;79.90;;;11.92;48.95;99169.28;4828293;28;118638;-87
2023/10/16 10:29:38;;;;;;;4.60;2.87;;;11.40;79.20;;;12.03;48.96;99163.53;4881867;28;118164;-87
2023/10/16 10:32:12;;;;;;;3.77;2.57;;;11.50;78.90;;;12.15;48.53;99161.84;4849181;28;124426;-87
2023/10/16 10:34:50;;;;;;;3.73;2.63;;;11.60;79.00;;;12.26;48.37;99170.72;4860260;28;124017;-88
2023/10/16 10:37:47;;;;;;;2.90;2.30;;;11.70;78.30;;;12.35;47.94;99163.28;4889177;28;119036;-87
2023/10/16 10:40:21;;;;;;;5.23;2.80;;;11.90;77.90;;;12.44;47.61;99157.81;4872432;28;117999;-88
2023/10/16 10:43:13;;;;;;;4.73;3.33;;;11.90;77.50;;;12.55;47.38;99144.50;4850845;29;122508;-88
2023/10/16 10:45:55;;;;;;;5.53;2.70;;;11.40;76.20;;;12.63;47.03;99149.28;4870591;28;124494;-87
2023/10/16 10:48:38;;;;;;;4.30;2.60;;;12.10;76.50;;;12.77;47.01;99140.88;4833239;29;119638;-87
2023/10/16 10:51:44;;;;;;;3.90;1.90;;;12.20;76.40;;;12.94;46.87;99145.69;4881313;28;117002;-87
2023/10/16 10:54:14;;;;;;;3.20;2.10;;;12.40;76.30;;;13.11;45.91;99134.66;4866335;28;122482;-87
2023/10/16 10:56:59;;;;;;;2.93;1.70;;;12.50;75.10;;;13.25;44.60;99132.56;4868841;28;123611;-88
2023/10/16 10:59:41;;;;;;;4.70;1.83;;;12.70;72.70;;;13.41;44.21;99132.16;4855788;28;119447;-87
2023/10/16 11:04:44;;;;;;;4.27;2.30;;;11.80;71.30;;;13.68;44.19;99123.56;4822110;29;124557;-90
2023/10/16 11:07:28;;;;;;;5.53;2.33;;;13.10;72.80;;;13.83;44.48;99125.00;4827587;29;124012;-91
2023/10/16 11:09:57;;;;;;;4.20;2.20;;;13.20;72.80;;;13.99;44.27;99119.78;4826446;29;119416;-87
2023/10/16 11:12:24;;;;;;;7.40;2.50;;;15.20;74.40;;;14.10;43.32;99112.78;4808608;29;118551;-86
2023/10/16 11:14:56;;;;;;;4.33;2.37;;;13.50;71.50;;;14.17;42.75;99111.47;4872620;28;123387;-86
2023/10/16 11:17:39;;;;;;;10.90;2.40;;;14.70;71.30;;;14.23;42.44;99101.78;4833539;29;122103;-88
2023/10/16 11:22:46;;;;;;;3.57;2.03;;;13.80;69.20;;;14.45;42.20;99087.69;4862034;28;119204;-87
2023/10/16 11:25:14;;;;;;;4.60;2.60;;;13.90;69.60;;;14.58;42.10;99080.31;4869983;28;123187;-86
2023/10/16 11:27:53;;;;;;;3.47;1.80;;;14.00;69.20;;;14.70;41.35;99074.09;4863955;28;123557;-87
2023/10/16 11:30:26;;;;;;;2.80;1.93;;;14.10;67.80;;;14.85;41.31;99069.91;4848181;28;117491;-87
2023/10/16 11:32:57;;;;;;;5.10;2.47;;;14.20;68.00;;;14.97;41.38;99062.50;4838693;28;117971;-88
2023/10/16 11:35:26;;;;;;;4.80;2.43;;;15.40;69.30;;;15.12;40.79;99057.50;4891974;28;123410;-86
2023/10/16 11:37:59;;;;;;;3.97;1.80;;;14.50;67.60;;;15.24;39.50;99054.81;4911988;28;123894;-89
2023/10/16 11:40:39;;;;;;;4.50;2.27;;;14.60;64.80;;;15.31;39.17;99049.50;4904513;28;118570;-87
2023/10/16 11:43:13;;;;;;;2.30;1.63;;;14.70;63.90;;;15.46;38.66;99053.69;4912334;28;119177;-88
2023/10/16 11:45:42;;;;;;;1.90;1.40;;;16.70;65.20;;;15.61;38.54;99035.56;4910169;28;123511;-87
2023/10/16 11:48:20;;;;;;;3.27;1.70;;;14.90;62.90;;;15.82;38.25;99039.13;4911208;28;122827;-87
2023/10/16 11:50:50;;;;;;;5.80;2.00;;;15.10;63.30;;;15.97;36.78;99031.31;4909884;28;119519;-87
2023/10/16 11:53:28;;;;;;;2.90;1.70;;;15.20;59.80;;;16.00;37.03;99025.88;4907121;28;119222;-88
2023/10/16 11:55:56;;;;;;;1.73;1.37;;;15.30;60.10;;;16.17;37.38;99024.06;4906473;28;124120;-87
2023/10/16 11:58:24;;;;;;;3.23;1.73;;;17.80;63.90;;;16.34;37.69;99027.47;4901616;28;122822;-89
2023/10/16 12:00:53;;;;;;;2.93;1.77;;;15.60;61.90;;;16.52;36.33;99025.31;4904767;28;119290;-88
2023/10/16 12:03:28;;;;;;;5.20;1.40;;;13.40;57.10;;;16.58;36.44;99017.53;4907037;28;119060;-89
2023/10/16 12:05:58;;;;;;;4.60;1.73;;;15.90;60.00;;;16.71;36.40;99009.97;4907633;28;123314;-89
2023/10/16 12:08:24;;;;;;;2.97;1.57;;;16.00;60.30;;;16.89;36.52;99007.78;4905724;28;123691;-89
2023/10/16 12:10:51;;;;;;;1.50;1.10;;;16.10;60.00;;;16.98;35.71;99005.72;4908182;28;119352;-88
2023/10/16 12:13:19;;;;;;;3.37;1.43;;;18.50;60.40;;;16.98;35.50;99003.72;4906891;28;118303;-89
2023/10/16 12:15:49;;;;;;;2.43;1.53;;;14.50;56.20;;;17.05;35.79;98999.53;4906875;28;123295;-88
2023/10/16 12:18:17;;;;;;;2.90;1.50;;;16.40;58.50;;;17.16;35.20;98993.09;4904502;28;123743;-89
2023/10/16 12:20:43;;;;;;;3.57;1.47;;;16.50;57.80;;;17.25;34.91;98987.41;4904407;28;117800;-88
2023/10/16 12:23:10;;;;;;;2.00;1.57;;;17.00;57.40;;;17.34;34.42;98982.50;4901884;28;118979;-89
2023/10/16 12:25:36;;;;;;;2.40;1.17;;;15.40;55.40;;;17.38;34.92;98982.59;4908177;28;124044;-89
2023/10/16 12:28:07;;;;;;;1.70;1.47;;;16.70;56.90;;;17.51;34.68;98973.00;4907986;28;122957;-90
2023/10/16 12:30:36;;;;;;;2.00;1.30;;;16.80;56.50;;;17.65;34.65;98975.38;4907441;28;118624;-88
2023/10/16 12:33:07;;;;;;;1.50;1.23;;;17.00;56.60;;;17.88;34.88;98968.09;4906966;28;118799;-89
2023/10/16 12:35:40;;;;;;;2.03;1.33;;;17.10;57.40;;;18.16;34.60;98963.63;4901130;28;123993;-89
2023/10/16 12:38:12;;;;;;;2.90;1.70;;;17.40;57.60;;;18.38;33.36;98951.84;4914655;28;122344;-89
2023/10/16 12:40:39;;;;;;;3.90;1.37;;;17.70;55.60;;;18.46;33.01;98942.47;4897228;28;120598;-88
2023/10/16 12:43:09;;;;;;;1.60;1.20;;;17.60;55.60;;;18.58;32.76;98944.34;4920945;28;119040;-88
2023/10/16 12:45:39;;;;;;;3.30;1.20;;;17.70;54.40;;;18.73;33.01;98953.91;4901056;28;123410;-87
2023/10/16 12:48:09;;;;;;;2.63;1.50;;;17.90;55.10;;;18.84;32.28;98945.78;4907490;28;123972;-87
2023/10/16 12:50:36;;;;;;;2.40;1.57;;;18.10;53.80;;;18.93;31.56;98950.00;4915200;28;119530;-88
2023/10/16 12:53:03;;;;;;;2.40;1.50;;;18.40;52.20;;;19.02;32.09;98940.59;4906980;28;118848;-87
2023/10/16 12:55:29;;;;;;;3.43;1.40;;;18.20;53.60;;;19.11;31.70;98938.41;4909654;28;124962;-87
2023/10/16 12:57:58;;;;;;;2.23;1.20;;;18.40;52.40;;;19.20;31.50;98928.59;4906858;28;124091;-87
2023/10/16 13:00:25;;;;;;;2.03;1.23;;;18.50;52.60;;;19.38;31.78;98931.78;4940093;28;118846;-88
2023/10/16 13:02:58;;;;;;;3.67;1.40;;;18.70;52.70;;;19.57;31.02;98921.75;4914468;28;118976;-87
2023/10/16 13:05:25;;;;;;;3.10;1.33;;;21.90;54.60;;;19.70;30.75;98920.44;4905484;28;123308;-87
2023/10/16 13:07:54;;;;;;;1.90;1.60;;;19.00;51.10;;;19.77;29.91;98906.59;4906021;28;124003;-88
2023/10/16 13:10:20;;;;;;;2.77;1.30;;;19.10;50.10;;;19.85;30.68;98911.13;4906201;28;119519;-88
2023/10/16 13:12:47;;;;;;;2.80;1.50;;;19.10;50.90;;;20.06;30.58;98915.50;4940019;28;118097;-89
2023/10/16 13:15:24;;;;;;;1.60;1.20;;;19.30;50.50;;;20.22;30.16;98906.97;4906619;28;124070;-87
2023/10/16 13:17:52;;;;;;;3.50;1.73;;;19.50;50.20;;;20.28;29.38;98900.69;4910008;28;123841;-89
2023/10/16 13:20:18;;;;;;;2.73;1.20;;;19.60;48.80;;;20.30;29.17;98912.31;4942739;28;118726;-87
2023/10/16 13:22:49;;;;;;;3.20;1.30;;;19.60;48.80;;;20.40;29.05;98904.47;4912481;28;118208;-88
2023/10/16 13:25:16;;;;;;;2.97;1.30;;;19.80;48.00;;;20.52;28.70;98898.63;4908738;28;124228;-89
2023/10/16 13:27:45;;;;;;;2.40;1.20;;;22.30;50.70;;;20.63;28.68;98899.69;4910438;28;123015;-87
2023/10/16 13:30:12;;;;;;;1.63;1.17;;;19.90;47.30;;;20.78;28.26;98900.69;4910521;28;119539;-88
2023/10/16 13:32:41;;;;;;;1.33;1.00;;;20.10;47.10;;;20.95;27.93;98899.31;4905369;28;120553;-89
2023/10/16 13:35:15;;;;;;;2.60;1.17;;;20.30;46.80;;;21.12;27.96;98898.78;4900856;28;123433;-89
2023/10/16 13:37:49;;;;;;;7.13;1.30;;;20.50;46.80;;;21.28;27.88;98900.56;4906720;28;124417;-89
2023/10/16 13:40:20;;;;;;;3.43;1.40;;;20.60;46.50;;;21.39;26.73;98895.94;4903097;28;119480;-88
2023/10/16 13:42:51;;;;;;;2.60;1.57;;;20.70;44.30;;;21.44;26.92;98892.78;4897163;28;118554;-87
2023/10/16 13:45:19;;;;;;;2.90;1.63;;;20.80;44.90;;;21.44;26.56;98887.16;4907705;28;124042;-89
2023/10/16 13:47:50;;;;;;;2.33;1.20;;;20.90;44.10;;;21.50;26.68;98885.63;4908612;28;124934;-89
2023/10/16 13:50:24;;;;;;;2.87;1.90;;;20.90;43.80;;;21.58;26.97;98878.06;4900469;28;119765;-89
2023/10/16 13:52:52;;;;;;;1.83;1.43;;;21.00;44.30;;;21.75;26.52;98885.09;4905752;28;119014;-88
2023/10/16 13:55:22;;;;;;;2.50;1.40;;;21.20;43.60;;;21.88;26.48;98880.00;4898782;28;123042;-90
2023/10/16 13:57:51;;;;;;;1.53;1.10;;;21.30;44.10;;;22.05;26.68;98876.53;4879206;28;123339;-88
2023/10/16 14:00:29;;;;;;;1.43;1.00;;;21.40;44.50;;;22.28;26.54;98880.00;4892169;28;119658;-87
2023/10/16 14:05:42;;;;;;;2.07;1.57;;;21.90;44.40;;;22.67;26.17;98867.41;4901249;28;124467;-90
2023/10/16 14:08:14;;;;;;;2.27;1.30;;;22.00;43.40;;;22.82;25.91;98869.13;4908661;28;123035;-88
2023/10/16 14:10:49;;;;;;;2.83;1.47;;;22.20;43.50;;;22.96;25.87;98867.59;4907465;28;119793;-85
2023/10/16 14:13:26;;;;;;;5.50;2.00;;;22.40;43.10;;;23.09;25.29;98866.88;4907190;28;119362;-89
2023/10/16 14:16:08;;;;;;;4.60;2.03;;;22.50;41.60;;;23.14;25.59;98851.63;4907464;28;124138;-88
2023/10/16 14:18:35;;;;;;;3.43;2.27;;;22.60;42.40;;;23.20;25.14;98852.03;4899288;28;124724;-88
2023/10/16 14:21:08;;;;;;;4.40;1.90;;;22.70;41.60;;;23.16;24.39;98860.50;4920546;28;119560;-87
2023/10/16 14:23:37;;;;;;;2.10;1.60;;;22.70;39.90;;;23.09;25.02;98854.81;4911524;28;119786;-90
2023/10/16 14:26:24;;;;;;;4.10;1.60;;;22.70;40.50;;;23.12;24.89;98842.75;4903614;28;124257;-90
2023/10/16 14:28:54;;;;;;;3.17;2.00;;;22.80;40.70;;;23.21;24.56;98854.44;4897827;28;124137;-89
2023/10/16 14:31:24;;;;;;;3.07;1.83;;;22.80;40.10;;;23.31;23.89;98850.88;4909602;28;119091;-88
2023/10/16 14:33:53;;;;;;;7.80;2.80;;;22.90;39.50;;;23.35;24.02;98851.69;4930893;28;118389;-88
2023/10/16 14:36:24;;;;;;;3.50;1.90;;;23.00;39.10;;;23.35;23.98;98846.06;4887766;28;123880;-89
2023/10/16 14:38:51;;;;;;;3.57;1.40;;;23.00;38.80;;;23.42;23.84;98844.47;4888969;28;122984;-89
2023/10/16 14:41:23;;;;;;;1.50;1.00;;;23.10;39.40;;;23.51;23.98;98842.09;4908040;28;119715;-88
2023/10/16 14:43:50;;;;;;;2.70;1.47;;;23.20;39.40;;;23.59;24.04;98838.88;4897775;28;118938;-87
2023/10/16 14:46:21;;;;;;;1.90;1.40;;;23.30;39.00;;;23.69;23.92;98842.13;4888930;28;123292;-88
2023/10/16 14:48:50;;;;;;;2.37;1.30;;;23.40;39.10;;;23.77;23.98;98838.13;4892457;28;123877;-86
2023/10/16 14:51:16;;;;;;;2.60;1.13;;;23.50;39.30;;;23.91;24.12;98834.53;4906421;28;119414;-88
2023/10/16 14:53:48;;;;;;;2.67;1.40;;;23.60;39.20;;;24.00;23.43;98847.03;4906012;28;117555;-86
2023/10/16 14:56:18;;;;;;;2.10;1.43;;;23.70;38.70;;;24.10;23.74;98845.44;4906562;28;124090;-88
2023/10/16 14:58:47;;;;;;;2.90;1.20;;;23.90;38.70;;;24.15;23.60;98839.41;4908006;28;123992;-89
2023/10/16 15:01:16;;;;;;;3.30;1.43;;;24.00;38.60;;;24.24;23.37;98845.44;4922112;28;119329;-89
2023/10/16 15:03:46;;;;;;;3.17;1.90;;;24.00;37.80;;;24.24;23.08;98856.72;4905289;28;119062;-88
2023/10/16 15:06:15;;;;;;;6.27;2.33;;;24.10;36.90;;;24.23;22.75;98843.00;4922723;28;123549;-89
2023/10/16 15:08:48;;;;;;;5.43;2.60;;;24.10;36.70;;;24.21;23.06;98840.59;4906524;28;123020;-88
2023/10/16 15:11:15;;;;;;;8.70;3.17;;;24.20;36.90;;;24.27;22.81;98840.19;4904992;28;120051;-89
2023/10/16 15:13:45;;;;;;;7.13;3.17;;;24.30;36.60;;;24.24;22.29;98850.28;4905919;28;119963;-88
2023/10/16 15:16:15;;;;;;;4.80;2.40;;;24.30;35.60;;;24.24;22.50;98839.78;4902911;28;124600;-89
2023/10/16 15:18:44;;;;;;;3.57;2.50;;;24.30;35.80;;;24.31;22.69;98843.81;4903085;28;124293;-89
2023/10/16 15:21:13;;;;;;;4.23;2.30;;;24.50;35.80;;;24.42;22.28;98839.78;4900102;28;119083;-89
2023/10/16 15:23:42;;;;;;;6.00;2.67;;;24.60;35.60;;;24.52;22.42;98843.81;4901546;28;119621;-89
2023/10/16 15:26:10;;;;;;;5.80;2.47;;;24.80;35.60;;;24.62;22.53;98842.22;4907612;28;122354;-88
2023/10/16 15:28:37;;;;;;;4.77;2.27;;;24.90;35.30;;;24.75;22.09;98836.94;4906654;28;123024;-90
2023/10/16 15:31:03;;;;;;;2.70;1.63;;;25.10;35.20;;;24.80;22.07;98831.69;4908207;28;119178;-88
2023/10/16 15:33:33;;;;;;;2.77;1.53;;;25.30;35.00;;;24.97;22.05;98835.66;4906875;28;118229;-87
2023/10/16 15:36:00;;;;;;;2.83;1.20;;;25.50;34.90;;;25.12;22.13;98828.75;4890584;28;123947;-89
2023/10/16 15:38:28;;;;;;;1.67;1.20;;;25.60;34.50;;;25.32;21.22;98831.13;4920387;28;122846;-87
2023/10/16 15:40:56;;;;;;;1.73;1.30;;;25.70;34.10;;;25.63;21.18;98825.69;4908926;28;118803;-87
2023/10/16 15:43:28;;;;;;;2.33;1.30;;;25.80;33.90;;;25.86;20.90;98834.47;4892308;28;119030;-88
2023/10/16 15:45:54;;;;;;;2.03;0.93;;;25.80;33.90;;;25.95;20.81;98829.16;4908913;28;123177;-86
2023/10/16 15:48:21;;;;;;;1.80;1.00;;;25.80;33.80;;;25.78;20.42;98830.03;4905274;28;123850;-86
2023/10/16 15:50:49;;;;;;;2.17;1.00;;;25.70;33.40;;;25.34;21.18;98825.84;4903970;28;119382;-87
2023/10/16 15:53:17;;;;;;;2.23;1.57;;;25.60;33.40;;;24.81;21.14;98833.28;4903051;28;118596;-91
2023/10/16 15:55:46;;;;;;;2.00;1.13;;;25.30;32.70;;;24.35;21.79;98833.34;4902607;28;124372;-88
2023/10/16 15:58:13;;;;;;;1.70;1.03;;;25.00;32.90;;;23.93;22.04;98834.94;4906112;28;123851;-88
2023/10/16 16:00:42;;;;;;;1.30;0.90;;;24.70;32.90;;;23.60;22.27;98831.22;4912708;28;119913;-87
2023/10/16 16:03:09;;;;;;;1.97;0.90;;;24.40;33.20;;;23.33;22.70;98836.38;4894554;28;119443;-89
2023/10/16 16:05:37;;;;;;;3.43;1.40;;;24.20;33.50;;;23.08;22.57;98827.84;4909224;28;123059;-89
2023/10/16 16:08:08;;;;;;;6.27;1.50;;;23.90;33.50;;;22.83;22.96;98833.31;4910041;28;122897;-89
2023/10/16 16:10:39;;;;;;;3.53;1.40;;;23.60;33.50;;;22.56;23.06;98832.75;4887415;28;118701;-89
2023/10/16 16:13:05;;;;;;;2.20;1.27;;;23.30;33.50;;;22.32;23.20;98837.00;4877546;28;118201;-89
2023/10/16 16:15:36;;;;;;;1.60;1.10;;;23.10;34.30;;;22.04;23.35;98847.59;4938281;28;121627;-89
2023/10/16 16:18:05;;;;;;;1.60;1.10;;;22.80;33.70;;;21.80;23.75;98851.00;4907138;28;123720;-89
2023/10/16 16:20:33;;;;;;;1.53;1.10;;;22.60;34.20;;;21.58;24.12;98847.16;4906712;28;118482;-87
2023/10/16 16:23:02;;;;;;;2.17;1.27;;;22.30;34.40;;;21.40;24.54;98849.75;4900704;28;119203;-88
2023/10/16 16:25:34;;;;;;;1.40;1.10;;;22.10;34.70;;;21.17;24.35;98855.44;4898801;28;124561;-88
2023/10/16 16:28:00;;;;;;;2.60;1.10;;;21.80;34.90;;;20.95;24.96;98854.38;4908199;28;123505;-88
2023/10/16 16:30:27;;;;;;;1.80;1.20;;;21.60;35.20;;;20.80;25.26;98855.38;4910340;28;119125;-88
2023/10/16 16:32:54;;;;;;;1.60;1.10;;;21.40;35.50;;;20.60;25.17;98852.69;4909482;28;119769;-88
2023/10/16 16:35:21;;;;;;;2.50;1.30;;;21.20;35.80;;;20.42;25.47;98848.78;4889083;28;123401;-89
2023/10/16 16:37:52;;;;;;;1.67;1.20;;;21.00;36.10;;;20.24;25.46;98848.50;4906979;28;124371;-89
2023/10/16 16:40:19;;;;;;;1.93;1.37;;;20.80;36.40;;;20.02;25.92;98850.94;4908769;28;119329;-88
2023/10/16 16:42:48;;;;;;;1.73;1.17;;;20.50;36.20;;;19.82;25.98;98852.97;4903881;28;118915;-89
2023/10/16 16:45:16;;;;;;;3.00;1.40;;;20.30;36.60;;;19.66;26.35;98852.28;4934166;28;123692;-89
2023/10/16 16:47:43;;;;;;;3.03;1.30;;;20.20;36.90;;;19.49;26.48;98861.16;4899495;28;122817;-89
2023/10/16 16:50:13;;;;;;;1.93;1.30;;;19.90;36.90;;;19.32;26.99;98859.63;4895795;28;120417;-89
2023/10/16 16:52:47;;;;;;;2.40;1.60;;;19.70;37.30;;;19.16;26.81;98863.28;4906121;28;119940;-89
2023/10/16 16:55:16;;;;;;;2.37;1.67;;;19.60;37.60;;;19.02;27.35;98868.59;4873357;28;123598;-89
2023/10/16 16:57:44;;;;;;;2.60;1.13;;;19.40;37.70;;;18.86;27.31;98854.66;4913536;28;122949;-89
2023/10/16 17:00:26;;;;;;;2.07;1.40;;;19.20;38.00;;;18.73;27.31;98862.34;4905683;28;119045;-89
2023/10/16 17:02:56;;;;;;;3.13;1.50;;;19.10;38.20;;;18.57;27.58;98861.56;4907391;28;119338;-88
2023/10/16 17:05:24;;;;;;;3.50;1.77;;;18.90;38.80;;;18.43;27.85;98858.41;4904820;28;124215;-89
2023/10/16 17:07:51;;;;;;;3.73;2.00;;;18.80;38.70;;;18.25;28.02;98863.59;4908481;28;124083;-90
2023/10/16 17:10:19;;;;;;;6.50;1.80;;;18.60;39.30;;;18.05;28.40;98862.69;4900823;28;120084;-89
2023/10/16 17:12:46;;;;;;;1.83;1.47;;;18.40;39.00;;;17.86;28.47;98863.41;4897785;28;119341;-88
2023/10/16 17:15:15;;;;;;;3.00;1.80;;;18.10;39.40;;;17.72;28.82;98863.00;4896027;28;123320;-88
2023/10/16 17:17:43;;;;;;;3.97;1.90;;;17.90;39.40;;;17.53;28.90;98877.66;4896545;28;124145;-88
2023/10/16 17:20:14;;;;;;;2.93;1.60;;;17.80;39.60;;;17.39;28.98;98880.88;4886997;28;118200;-90
2023/10/16 17:22:42;;;;;;;2.53;1.40;;;17.70;39.90;;;17.27;29.48;98875.34;4907750;28;118154;-89
2023/10/16 17:25:11;;;;;;;2.90;1.53;;;17.50;40.10;;;17.14;29.59;98871.78;4936882;28;123474;-88
2023/10/16 17:27:38;;;;;;;2.80;1.87;;;15.70;38.80;;;17.05;29.74;98882.28;4918674;28;123437;-87
2023/10/16 17:30:12;;;;;;;3.13;1.40;;;17.30;40.50;;;16.97;29.99;98886.84;4902577;28;119218;-88
2023/10/16 17:32:40;;;;;;;3.90;1.67;;;17.20;40.60;;;16.89;30.28;98890.56;4924855;28;118403;-86
2023/10/16 17:35:11;;;;;;;2.73;2.03;;;17.10;41.00;;;16.73;30.14;98888.47;4911987;28;124077;-88
2023/10/16 17:37:42;;;;;;;1.87;1.57;;;17.00;41.20;;;16.61;30.36;98894.09;4916399;28;123950;-86
2023/10/16 17:40:15;;;;;;;2.57;1.60;;;16.90;41.40;;;16.52;30.70;98902.59;4897192;28;120153;-88
2023/10/16 17:42:43;;;;;;;1.40;1.30;;;16.80;41.60;;;16.45;30.64;98901.53;4904304;28;120242;-87
2023/10/16 17:45:15;;;;;;;3.10;1.50;;;16.70;42.10;;;16.38;31.38;98890.16;4902534;28;124240;-90
2023/10/16 17:47:43;;;;;;;3.23;1.33;;;15.50;41.30;;;16.30;31.26;98889.09;4889364;28;122095;-89
2023/10/16 17:50:11;;;;;;;3.10;1.30;;;17.20;43.00;;;16.26;31.15;98891.78;4904552;28;117731;-90
2023/10/16 17:52:38;;;;;;;2.40;1.27;;;16.40;42.80;;;16.22;31.46;98899.19;4898982;28;119045;-89
2023/10/16 17:55:05;;;;;;;2.03;1.40;;;16.40;42.90;;;16.18;31.59;98903.84;4899825;28;124255;-87
2023/10/16 17:57:33;;;;;;;2.80;1.40;;;16.30;43.10;;;16.14;31.71;98908.47;4895568;28;124085;-88
2023/10/16 18:00:04;;;;;;;2.27;1.67;;;16.30;43.40;;;16.09;31.81;98912.34;4912449;28;119385;-87
2023/10/16 18:02:39;;;;;;;3.10;1.87;;;16.20;43.50;;;16.04;31.99;98909.78;4910345;28;119482;-89
2023/10/16 18:05:10;;;;;;;5.70;2.70;;;18.80;46.00;;;15.98;32.14;98899.97;4916369;28;124618;-88
2023/10/16 18:07:41;;;;;;;2.73;1.93;;;16.10;44.20;;;15.93;32.30;98907.75;4929267;28;123319;-87
2023/10/16 18:10:09;;;;;;;3.33;1.47;;;16.00;44.10;;;15.86;32.50;98908.34;4918612;28;117432;-89
2023/10/16 18:12:46;;;;;;;3.00;1.90;;;15.90;44.20;;;15.81;32.79;98912.16;4920288;28;119085;-88
2023/10/16 18:15:18;;;;;;;2.80;1.47;;;15.90;44.60;;;15.75;32.80;98910.75;4897554;28;122361;-88
2023/10/16 18:17:57;;;;;;;2.03;1.37;;;15.80;44.60;;;15.67;32.91;98912.44;4887477;28;123938;-87
2023/10/16 18:20:32;;;;;;;2.80;1.80;;;15.80;44.80;;;15.59;33.17;98916.13;4894730;28;119676;-89
2023/10/16 18:23:02;;;;;;;4.13;1.70;;;15.70;45.00;;;15.52;33.45;98915.03;4902548;28;117928;-85
2023/10/16 18:25:33;;;;;;;2.40;1.77;;;15.60;45.40;;;15.45;33.50;98910.84;4914470;28;123165;-86
2023/10/16 18:28:27;;;;;;;2.93;1.90;;;15.50;45.30;;;15.36;33.37;98910.09;4917197;28;123599;-86
2023/10/16 18:30:58;;;;;;;6.23;1.50;;;15.40;45.50;;;15.36;33.48;98914.88;4918531;28;118847;-87
2023/10/16 18:33:46;;;;;;;2.50;1.47;;;15.40;45.60;;;15.32;33.75;98914.75;4916937;28;119691;-85
2023/10/16 18:36:19;;;;;;;4.40;1.90;;;15.40;45.90;;;15.31;33.81;98923.41;4890229;28;123763;-87
2023/10/16 18:38:55;;;;;;;3.87;2.10;;;15.30;46.40;;;15.27;34.17;98928.06;4866109;29;123022;-87
2023/10/16 18:41:30;;;;;;;3.43;2.10;;;15.30;46.30;;;15.22;34.21;98920.72;4854593;29;118568;-88
2023/10/16 18:44:19;;;;;;;6.37;2.50;;;15.20;46.40;;;15.16;34.32;98931.25;4842936;29;119689;-88
2023/10/16 18:46:59;;;;;;;4.53;2.43;;;15.20;46.70;;;15.14;34.33;98932.75;4829820;29;123610;-84
2023/10/16 18:49:45;;;;;;;3.07;1.77;;;15.10;46.70;;;15.08;34.37;98945.25;4876009;28;125101;-87
2023/10/16 18:52:46;;;;;;;3.40;1.80;;;15.10;46.90;;;15.00;34.49;98933.00;4846181;28;119769;-90
2023/10/16 18:55:16;;;;;;;3.50;2.00;;;15.00;47.00;;;14.97;34.49;98948.41;4853351;29;117423;-87
2023/10/16 18:57:45;;;;;;;2.57;1.80;;;15.00;47.10;;;14.93;34.73;98927.97;4850314;29;122529;-86